Time;durP1;ratioP1;P1;durP2;ratioP2;P2;SDS_P1;SDS_P2;PMS_P1;PMS_P2;Temp;Humidity;BMP_temperature;BMP_pressure;BME280_temperature;BME280_humidity;BME280_pressure;Samples;Min_cycle;Max_cycle;Signal;HPM_P1;HPM_P2
2022/07/09 00:01:02;;;;;;;10.25;5.20;;;;;;;;;;5052659;27;95513;-72
2022/07/09 00:03:29;;;;;;;10.15;5.68;;;;;;;;;;5062136;27;96826;-72
2022/07/09 00:05:55;;;;;;;13.23;5.82;;;;;;;;;;5053394;27;95322;-72
2022/07/09 00:08:22;;;;;;;10.63;5.47;;;;;;;;;;5052439;27;95913;-73
2022/07/09 00:10:48;;;;;;;9.55;5.53;;;;;;;;;;5068647;27;97697;-72
2022/07/09 00:13:14;;;;;;;9.27;5.28;;;;;;;;;;5064578;27;95284;-72
2022/07/09 00:15:41;;;;;;;13.07;5.88;;;;;;;;;;5073972;27;96668;-72
2022/07/09 00:18:07;;;;;;;11.48;5.80;;;;;;;;;;5073539;27;97326;-72
2022/07/09 00:20:33;;;;;;;15.82;5.85;;;;;;;;;;5062261;27;95958;-71
2022/07/09 00:23:00;;;;;;;9.85;5.45;;;;;;;;;;5052891;27;95774;-73
2022/07/09 00:25:26;;;;;;;13.60;6.15;;;;;;;;;;5053100;27;96944;-72
2022/07/09 00:27:52;;;;;;;17.33;6.05;;;;;;;;;;5071475;27;96968;-73
2022/07/09 00:30:19;;;;;;;13.13;6.30;;;;;;;;;;5073435;27;96949;-73
2022/07/09 00:32:45;;;;;;;12.75;5.95;;;;;;;;;;5069622;27;95326;-73
2022/07/09 00:35:11;;;;;;;10.00;5.82;;;;;;;;;;5051991;27;96407;-73
2022/07/09 00:37:38;;;;;;;11.32;6.07;;;;;;;;;;5051837;27;97262;-72
2022/07/09 00:40:04;;;;;;;11.50;6.55;;;;;;;;;;5053279;27;95543;-73
2022/07/09 00:42:31;;;;;;;25.38;7.55;;;;;;;;;;5055759;27;96802;-73
2022/07/09 00:44:58;;;;;;;12.32;6.30;;;;;;;;;;5065576;27;97392;-73
2022/07/09 00:47:24;;;;;;;11.43;6.07;;;;;;;;;;5074525;27;95205;-73
2022/07/09 00:49:51;;;;;;;14.40;6.40;;;;;;;;;;5067870;27;97353;-73
2022/07/09 00:52:17;;;;;;;11.05;6.55;;;;;;;;;;5052399;27;95169;-73
2022/07/09 00:54:44;;;;;;;15.95;6.60;;;;;;;;;;5062972;27;97095;-73
2022/07/09 00:57:11;;;;;;;10.10;6.55;;;;;;;;;;5053588;27;96087;-72
2022/07/09 00:59:38;;;;;;;11.52;6.32;;;;;;;;;;5051372;27;95299;-72
2022/07/09 01:02:06;;;;;;;10.18;6.20;;;;;;;;;;5052011;27;96611;-73
2022/07/09 01:04:32;;;;;;;10.15;6.93;;;;;;;;;;5050590;27;97218;-73
2022/07/09 01:06:58;;;;;;;12.65;6.90;;;;;;;;;;5056369;27;95548;-73
2022/07/09 01:09:25;;;;;;;14.77;6.82;;;;;;;;;;5051843;27;96286;-73
2022/07/09 01:11:51;;;;;;;14.07;7.13;;;;;;;;;;5051848;27;95444;-73
2022/07/09 01:14:18;;;;;;;12.52;7.22;;;;;;;;;;5050762;27;96586;-72
2022/07/09 01:16:44;;;;;;;12.93;7.50;;;;;;;;;;5052149;27;97287;-73
2022/07/09 01:19:10;;;;;;;12.88;6.82;;;;;;;;;;5070684;27;95425;-73
2022/07/09 01:21:37;;;;;;;13.90;7.22;;;;;;;;;;5056506;27;96733;-72
2022/07/09 01:24:03;;;;;;;12.23;7.88;;;;;;;;;;5051994;27;97377;-73
2022/07/09 01:26:30;;;;;;;12.85;7.30;;;;;;;;;;5057024;27;95433;-73
2022/07/09 01:28:56;;;;;;;13.32;7.68;;;;;;;;;;5065811;27;96873;-73
2022/07/09 01:31:23;;;;;;;10.77;7.32;;;;;;;;;;5061735;27;96338;-73
2022/07/09 01:33:49;;;;;;;13.75;7.55;;;;;;;;;;5069456;27;96819;-73
2022/07/09 01:36:16;;;;;;;13.07;7.82;;;;;;;;;;5060778;27;97329;-72
2022/07/09 01:38:43;;;;;;;12.60;7.75;;;;;;;;;;5073526;27;95076;-72
2022/07/09 01:41:10;;;;;;;11.75;7.45;;;;;;;;;;5075946;27;95911;-72
2022/07/09 01:43:36;;;;;;;13.00;7.93;;;;;;;;;;5068668;27;97270;-73
2022/07/09 01:46:02;;;;;;;15.90;8.20;;;;;;;;;;5065737;27;95558;-72
2022/07/09 01:48:29;;;;;;;19.25;8.18;;;;;;;;;;5055964;27;95863;-72
2022/07/09 01:50:58;;;;;;;15.60;8.20;;;;;;;;;;5055818;27;97490;-72
2022/07/09 01:53:24;;;;;;;13.63;8.35;;;;;;;;;;5062145;27;96828;-72
2022/07/09 01:55:51;;;;;;;12.35;8.07;;;;;;;;;;5053160;27;97288;-72
2022/07/09 01:58:17;;;;;;;16.35;8.45;;;;;;;;;;5073226;27;95307;-72
2022/07/09 02:00:44;;;;;;;15.30;8.68;;;;;;;;;;5065765;27;96745;-72
2022/07/09 02:03:10;;;;;;;12.43;7.55;;;;;;;;;;5075021;27;97324;-73
2022/07/09 02:05:37;;;;;;;16.52;8.60;;;;;;;;;;5060273;27;95424;-73
2022/07/09 02:08:03;;;;;;;14.93;7.68;;;;;;;;;;5071933;27;96864;-72
2022/07/09 02:10:30;;;;;;;14.38;8.13;;;;;;;;;;5074658;27;97428;-72
2022/07/09 02:12:56;;;;;;;14.65;8.13;;;;;;;;;;5077103;27;95298;-72
2022/07/09 02:15:23;;;;;;;15.27;8.35;;;;;;;;;;5052875;27;96151;-72
2022/07/09 02:17:49;;;;;;;17.58;7.53;;;;;;;;;;5062299;27;95925;-72
2022/07/09 02:20:16;;;;;;;11.27;7.35;;;;;;;;;;5064015;27;96876;-72
2022/07/09 02:22:42;;;;;;;23.15;7.90;;;;;;;;;;5075274;27;97268;-73
2022/07/09 02:25:08;;;;;;;15.80;8.35;;;;;;;;;;5064036;27;95302;-72
2022/07/09 02:27:34;;;;;;;18.45;8.73;;;;;;;;;;5067695;27;96990;-72
2022/07/09 02:30:01;;;;;;;12.68;7.20;;;;;;;;;;5062236;27;97352;-72
2022/07/09 02:32:27;;;;;;;12.45;8.00;;;;;;;;;;5061767;27;95416;-72
2022/07/09 02:34:54;;;;;;;18.08;7.93;;;;;;;;;;5077590;27;95811;-72
2022/07/09 02:37:20;;;;;;;12.43;7.65;;;;;;;;;;5070543;27;95250;-73
2022/07/09 02:39:47;;;;;;;13.93;7.90;;;;;;;;;;5058847;27;95985;-72
2022/07/09 02:42:13;;;;;;;15.68;8.25;;;;;;;;;;5059223;27;97219;-72
2022/07/09 02:44:43;;;;;;;16.67;8.75;;;;;;;;;;5074628;27;95384;-72
2022/07/09 02:47:09;;;;;;;13.50;8.05;;;;;;;;;;5070223;27;96703;-72
2022/07/09 02:49:35;;;;;;;12.13;7.78;;;;;;;;;;5065717;27;96158;-72
2022/07/09 02:52:02;;;;;;;15.93;8.65;;;;;;;;;;5074815;27;95500;-72
2022/07/09 02:54:28;;;;;;;12.60;7.72;;;;;;;;;;5053755;27;95308;-72
2022/07/09 02:56:54;;;;;;;15.30;8.05;;;;;;;;;;5063288;27;96319;-72
2022/07/09 02:59:21;;;;;;;15.35;9.05;;;;;;;;;;5074170;27;96774;-73
2022/07/09 03:01:47;;;;;;;16.23;9.23;;;;;;;;;;5074388;27;97311;-73
2022/07/09 03:04:13;;;;;;;20.48;9.00;;;;;;;;;;5073832;27;95381;-73
2022/07/09 03:06:40;;;;;;;20.90;11.65;;;;;;;;;;5058055;27;95953;-72
2022/07/09 03:09:06;;;;;;;23.45;11.68;;;;;;;;;;5073916;27;97347;-73
2022/07/09 03:11:32;;;;;;;28.42;11.60;;;;;;;;;;5052967;27;95398;-73
2022/07/09 03:13:59;;;;;;;23.70;12.50;;;;;;;;;;5073704;27;96922;-72
2022/07/09 03:16:25;;;;;;;28.70;12.85;;;;;;;;;;5059602;27;96277;-72
2022/07/09 03:18:51;;;;;;;26.33;13.40;;;;;;;;;;5059687;27;96707;-72
2022/07/09 03:21:18;;;;;;;25.23;13.40;;;;;;;;;;5072729;27;96397;-72
2022/07/09 03:23:44;;;;;;;24.08;13.52;;;;;;;;;;5074094;27;95337;-73
2022/07/09 03:26:11;;;;;;;18.10;10.30;;;;;;;;;;5056977;27;96875;-73
2022/07/09 03:28:37;;;;;;;20.92;9.05;;;;;;;;;;5056931;27;97990;-73
2022/07/09 03:31:04;;;;;;;15.70;9.35;;;;;;;;;;5073980;27;95398;-73
2022/07/09 03:33:30;;;;;;;15.90;9.45;;;;;;;;;;5072834;27;97131;-73
2022/07/09 03:35:58;;;;;;;12.90;7.47;;;;;;;;;;5073196;27;97408;-73
2022/07/09 03:38:24;;;;;;;14.48;7.60;;;;;;;;;;5059655;27;96957;-73
2022/07/09 03:40:51;;;;;;;13.90;8.20;;;;;;;;;;5065254;27;97765;-73
2022/07/09 03:43:17;;;;;;;11.88;7.47;;;;;;;;;;5073299;27;95297;-73
2022/07/09 03:45:43;;;;;;;16.95;6.55;;;;;;;;;;5071255;27;95190;-73
2022/07/09 03:48:10;;;;;;;17.52;7.40;;;;;;;;;;5060127;27;97538;-73
2022/07/09 03:50:36;;;;;;;11.80;7.13;;;;;;;;;;5073094;27;95321;-73
2022/07/09 03:53:03;;;;;;;19.20;6.95;;;;;;;;;;5070997;27;97075;-72
2022/07/09 03:55:29;;;;;;;12.68;7.72;;;;;;;;;;5061342;27;97360;-73
2022/07/09 03:57:55;;;;;;;14.32;7.60;;;;;;;;;;5068438;27;95747;-72
2022/07/09 04:00:22;;;;;;;22.20;8.55;;;;;;;;;;5076320;27;96797;-72
2022/07/09 04:02:48;;;;;;;14.75;8.13;;;;;;;;;;5070762;27;95383;-72
2022/07/09 04:05:15;;;;;;;13.55;8.05;;;;;;;;;;5064850;27;96938;-72
2022/07/09 04:07:41;;;;;;;21.90;9.65;;;;;;;;;;5067105;27;97336;-73
2022/07/09 20:37:20;;;;;;;6.97;2.15;;;;;;;;;;5026399;27;1295302;-73
2022/07/09 20:39:46;;;;;;;8.20;2.53;;;;;;;;;;5048664;27;97138;-73
2022/07/09 20:42:12;;;;;;;10.30;2.00;;;;;;;;;;5045880;27;95493;-72
2022/07/09 20:44:39;;;;;;;6.50;1.67;;;;;;;;;;5047608;27;97417;-73
2022/07/09 20:47:05;;;;;;;7.07;1.85;;;;;;;;;;5046477;27;97610;-73
2022/07/09 20:49:37;;;;;;;5.53;1.50;;;;;;;;;;5047156;27;95465;-73
2022/07/09 20:52:04;;;;;;;3.50;1.70;;;;;;;;;;5046167;27;95670;-73
2022/07/09 20:54:30;;;;;;;6.38;1.65;;;;;;;;;;5045548;27;97319;-74
2022/07/09 20:56:56;;;;;;;8.00;3.53;;;;;;;;;;5046043;27;95169;-73
2022/07/09 20:59:23;;;;;;;6.93;3.42;;;;;;;;;;5045210;27;97995;-73
2022/07/09 21:01:49;;;;;;;9.25;1.92;;;;;;;;;;5036462;27;96038;-73
2022/07/09 21:04:16;;;;;;;5.47;1.80;;;;;;;;;;5043413;27;96880;-73
2022/07/09 21:06:42;;;;;;;6.38;2.00;;;;;;;;;;5048100;27;97231;-73
2022/07/09 21:09:08;;;;;;;8.02;3.70;;;;;;;;;;5049133;27;95134;-74
2022/07/09 21:11:35;;;;;;;9.55;2.80;;;;;;;;;;5045368;27;96718;-73
2022/07/09 21:14:01;;;;;;;5.95;2.30;;;;;;;;;;5045894;27;97432;-73
2022/07/09 21:19:15;;;;;;;5.28;1.75;;;;;;;;;;5042369;27;97062;-73
2022/07/09 21:21:45;;;;;;;10.10;2.20;;;;;;;;;;5046986;27;95340;-73
2022/07/09 21:24:19;;;;;;;5.93;2.08;;;;;;;;;;5045176;27;98392;-72
2022/07/09 21:26:54;;;;;;;4.60;1.60;;;;;;;;;;5048432;27;98144;-73
2022/07/09 21:29:29;;;;;;;5.97;1.45;;;;;;;;;;5045511;27;95386;-72
2022/07/09 21:31:57;;;;;;;6.70;1.47;;;;;;;;;;5048447;27;97212;-71
2022/07/09 21:34:25;;;;;;;5.88;1.52;;;;;;;;;;5048350;27;96675;-71
2022/07/09 21:36:55;;;;;;;3.58;1.45;;;;;;;;;;5047369;27;95313;-72
2022/07/09 21:39:24;;;;;;;7.43;1.80;;;;;;;;;;5043453;27;96268;-71
2022/07/09 21:41:53;;;;;;;5.20;1.38;;;;;;;;;;5050735;27;96727;-71
2022/07/09 21:44:22;;;;;;;5.45;1.30;;;;;;;;;;5047215;27;95733;-72
2022/07/09 21:46:50;;;;;;;11.20;1.35;;;;;;;;;;5045168;27;96398;-72
2022/07/09 21:49:18;;;;;;;3.63;1.20;;;;;;;;;;5030970;27;95459;-71
2022/07/09 21:51:46;;;;;;;13.13;1.77;;;;;;;;;;5034108;28;96507;-73
2022/07/09 21:54:13;;;;;;;4.80;1.67;;;;;;;;;;5035388;28;96612;-72
2022/07/09 21:56:41;;;;;;;6.35;2.28;;;;;;;;;;5035267;27;95534;-72
2022/07/09 21:59:09;;;;;;;6.00;1.40;;;;;;;;;;5033156;27;96554;-72
2022/07/09 22:01:37;;;;;;;5.90;1.48;;;;;;;;;;5034837;27;97216;-72
2022/07/09 22:04:04;;;;;;;8.45;2.08;;;;;;;;;;5036205;27;95416;-73
2022/07/09 22:06:30;;;;;;;4.18;1.38;;;;;;;;;;5032787;28;98045;-73
2022/07/09 22:08:57;;;;;;;4.15;1.30;;;;;;;;;;5032847;28;95174;-73
2022/07/09 22:11:23;;;;;;;6.43;1.55;;;;;;;;;;5035051;28;96519;-72
2022/07/09 22:13:50;;;;;;;4.70;1.50;;;;;;;;;;5031341;28;99010;-73
2022/07/09 22:16:16;;;;;;;10.95;2.00;;;;;;;;;;5034749;28;95244;-72
2022/07/09 22:18:43;;;;;;;5.70;1.52;;;;;;;;;;5031967;28;99227;-73
2022/07/09 22:21:09;;;;;;;5.18;1.42;;;;;;;;;;5034323;28;97479;-73
2022/07/09 22:23:36;;;;;;;8.48;1.67;;;;;;;;;;5034654;28;95467;-72
2022/07/09 22:26:02;;;;;;;5.82;1.38;;;;;;;;;;5036075;28;96880;-73
2022/07/09 22:28:29;;;;;;;6.65;1.73;;;;;;;;;;5028174;27;96941;-73
2022/07/09 22:30:56;;;;;;;9.10;1.50;;;;;;;;;;5032691;28;96681;-73
2022/07/09 22:33:23;;;;;;;8.77;1.73;;;;;;;;;;5034114;27;98503;-72
2022/07/09 22:35:50;;;;;;;6.28;1.58;;;;;;;;;;5031664;28;96642;-72
2022/07/09 22:38:16;;;;;;;6.88;1.77;;;;;;;;;;5033059;28;96798;-72
2022/07/09 22:40:43;;;;;;;4.90;1.60;;;;;;;;;;5034485;28;97361;-72
2022/07/09 22:43:09;;;;;;;4.78;1.58;;;;;;;;;;5029536;28;95393;-73
2022/07/09 22:45:35;;;;;;;6.30;1.48;;;;;;;;;;5033406;28;96696;-74
2022/07/09 22:48:02;;;;;;;6.97;1.70;;;;;;;;;;5036716;27;96120;-73
2022/07/09 22:50:28;;;;;;;7.90;1.45;;;;;;;;;;5031709;28;96877;-73
2022/07/09 22:52:55;;;;;;;6.90;1.70;;;;;;;;;;5032147;28;97418;-73
2022/07/09 22:55:21;;;;;;;8.85;1.50;;;;;;;;;;5033446;28;95339;-72
2022/07/09 22:57:47;;;;;;;9.30;1.63;;;;;;;;;;5033890;27;95581;-73
2022/07/09 23:00:16;;;;;;;10.90;1.80;;;;;;;;;;5028884;27;97389;-73
2022/07/09 23:02:43;;;;;;;10.57;1.90;;;;;;;;;;5032302;27;95349;-73
2022/07/09 23:05:10;;;;;;;7.20;1.63;;;;;;;;;;5032781;28;96952;-73
2022/07/09 23:10:21;;;;;;;5.53;1.70;;;;;;;;;;5032031;27;95650;-73
2022/07/09 23:12:47;;;;;;;25.52;2.13;;;;;;;;;;5031821;28;97324;-74
2022/07/09 23:15:14;;;;;;;7.03;1.80;;;;;;;;;;5031505;28;95431;-73
2022/07/09 23:17:40;;;;;;;4.57;1.60;;;;;;;;;;5033870;28;96762;-73
2022/07/09 23:20:07;;;;;;;5.47;1.50;;;;;;;;;;5032572;28;97295;-73
2022/07/09 23:22:33;;;;;;;5.68;1.90;;;;;;;;;;5032699;28;95313;-73
2022/07/09 23:24:59;;;;;;;7.20;1.60;;;;;;;;;;5033079;28;97151;-73
2022/07/09 23:27:28;;;;;;;5.43;1.55;;;;;;;;;;5033418;27;97364;-73
2022/07/09 23:29:54;;;;;;;6.22;1.83;;;;;;;;;;5034177;27;95801;-73
2022/07/09 23:32:21;;;;;;;5.70;2.08;;;;;;;;;;5029370;28;97102;-73
2022/07/09 23:34:47;;;;;;;7.43;1.45;;;;;;;;;;5013661;28;95850;-73
2022/07/09 23:37:13;;;;;;;7.25;1.70;;;;;;;;;;5012796;28;96804;-73
2022/07/09 23:39:45;;;;;;;5.50;1.52;;;;;;;;;;5018436;28;97318;-73
2022/07/09 23:42:12;;;;;;;12.63;2.40;;;;;;;;;;5033824;28;95352;-73
2022/07/09 23:44:38;;;;;;;5.60;1.73;;;;;;;;;;5032862;28;96702;-73
2022/07/09 23:47:04;;;;;;;8.05;1.80;;;;;;;;;;5028709;28;97100;-75
2022/07/09 23:49:31;;;;;;;6.28;2.05;;;;;;;;;;5032711;28;96745;-74
2022/07/09 23:51:58;;;;;;;6.68;1.70;;;;;;;;;;5036048;28;97282;-74
2022/07/09 23:54:25;;;;;;;3.50;1.48;;;;;;;;;;5032995;27;95425;-74
2022/07/09 23:56:51;;;;;;;6.40;1.45;;;;;;;;;;5031101;28;96670;-74
2022/07/09 23:59:17;;;;;;;5.68;1.70;;;;;;;;;;5027891;28;97354;-75
